createdAt,value
2023-02-24T00:01:54.590Z,98371.41
2023-02-24T00:04:21.676Z,98375.78
2023-02-24T00:06:49.072Z,98367.34
2023-02-24T00:09:21.967Z,98380.13
2023-02-24T00:12:02.391Z,98365.66
2023-02-24T00:14:33.316Z,98360.97
2023-02-24T00:17:00.895Z,98359.81
2023-02-24T00:19:32.785Z,98355.66
2023-02-24T00:22:01.418Z,98353.81
2023-02-24T00:24:29.031Z,98356.50
2023-02-24T00:26:59.613Z,98343.91
2023-02-24T00:29:29.113Z,98351.09
2023-02-24T00:32:01.431Z,98347.22
2023-02-24T00:34:33.992Z,98344.13
2023-02-24T00:37:02.067Z,98337.25
2023-02-24T00:39:34.655Z,98333.91
2023-02-24T00:42:06.386Z,98333.47
2023-02-24T00:44:46.343Z,98325.66
2023-02-24T00:47:19.050Z,98323.78
2023-02-24T00:49:46.125Z,98312.16
2023-02-24T00:52:16.029Z,98311.22
2023-02-24T00:54:45.322Z,98304.94
2023-02-24T00:57:13.312Z,98302.13
2023-02-24T00:59:40.580Z,98310.97
2023-02-24T01:02:07.794Z,98302.94
2023-02-24T01:04:35.446Z,98292.75
2023-02-24T01:07:02.424Z,98289.63
2023-02-24T01:09:31.332Z,98298.56
2023-02-24T01:12:21.999Z,98298.28
2023-02-24T01:14:52.226Z,98282.53
2023-02-24T01:17:21.881Z,98282.22
2023-02-24T01:19:50.448Z,98277.00
2023-02-24T01:22:19.901Z,98271.78
2023-02-24T01:24:47.609Z,98282.53
2023-02-24T01:27:19.935Z,98263.66
2023-02-24T01:29:50.329Z,98263.47
2023-02-24T01:32:21.054Z,98261.97
2023-02-24T01:34:52.218Z,98267.06
2023-02-24T01:37:20.328Z,98257.28
2023-02-24T01:39:48.215Z,98257.66
2023-02-24T01:42:19.827Z,98253.00
2023-02-24T01:44:47.774Z,98248.44
2023-02-24T01:47:18.553Z,98250.19
2023-02-24T01:49:49.939Z,98249.22
2023-02-24T01:52:19.077Z,98252.44
2023-02-24T01:54:58.711Z,98241.41
2023-02-24T01:57:31.355Z,98244.03
2023-02-24T02:00:11.298Z,98238.19
2023-02-24T02:02:46.588Z,98234.34
2023-02-24T02:05:14.786Z,98236.91
2023-02-24T02:07:43.587Z,98236.09
2023-02-24T02:10:11.372Z,98234.63
2023-02-24T02:12:45.239Z,98228.81
2023-02-24T02:15:14.745Z,98233.63
2023-02-24T02:18:28.595Z,98231.41
2023-02-24T02:21:36.365Z,98233.97
2023-02-24T02:24:13.213Z,98232.69
2023-02-24T02:26:58.944Z,98226.06
2023-02-24T02:29:48.602Z,98226.06
2023-02-24T02:32:35.235Z,98224.16
2023-02-24T02:35:19.037Z,98222.47
2023-02-24T02:38:04.457Z,98217.66
2023-02-24T02:40:42.574Z,98218.31
2023-02-24T02:43:49.416Z,98217.66
2023-02-24T02:46:34.972Z,98210.56
2023-02-24T02:49:09.012Z,98206.81
2023-02-24T02:51:45.941Z,98211.63
2023-02-24T02:54:18.236Z,98208.03
2023-02-24T02:57:13.118Z,98207.53
2023-02-24T02:59:49.458Z,98203.25
2023-02-24T03:02:21.433Z,98198.59
2023-02-24T03:04:57.829Z,98199.41
2023-02-24T03:07:31.390Z,98196.66
2023-02-24T03:10:10.808Z,98199.16
2023-02-24T03:12:41.085Z,98191.38
2023-02-24T03:15:11.360Z,98193.00
2023-02-24T03:17:43.508Z,98178.53
2023-02-24T03:20:16.732Z,98187.75
2023-02-24T03:22:56.082Z,98183.81
2023-02-24T03:25:28.772Z,98174.91
2023-02-24T03:28:04.004Z,98166.66
2023-02-24T03:30:50.541Z,98170.09
2023-02-24T03:33:39.030Z,98169.66
2023-02-24T03:36:06.130Z,98173.03
2023-02-24T03:38:38.400Z,98168.38
2023-02-24T03:41:11.458Z,98171.53
2023-02-24T03:43:46.821Z,98164.16
2023-02-24T03:46:17.147Z,98164.78
2023-02-24T03:48:53.966Z,98165.53
2023-02-24T03:51:23.539Z,98173.72
2023-02-24T03:53:56.304Z,98171.59
2023-02-24T03:56:27.052Z,98169.56
2023-02-24T03:59:28.027Z,98177.38
2023-02-24T04:02:30.235Z,98172.31
2023-02-24T04:05:15.676Z,98162.78
2023-02-24T04:08:04.240Z,98161.56
2023-02-24T04:10:41.233Z,98158.97
2023-02-24T04:13:28.468Z,98155.94
2023-02-24T04:16:08.388Z,98151.31
2023-02-24T04:18:35.932Z,98150.00
2023-02-24T04:21:05.588Z,98152.31
2023-02-24T04:23:43.282Z,98152.03
2023-02-24T04:26:16.044Z,98161.41
2023-02-24T04:28:44.125Z,98161.31
2023-02-24T04:31:17.658Z,98159.09
2023-02-24T04:33:50.555Z,98155.25
2023-02-24T04:36:22.411Z,98152.47
2023-02-24T04:38:49.898Z,98151.97
2023-02-24T04:41:21.604Z,98138.56
2023-02-24T04:43:53.332Z,98147.19
2023-02-24T04:46:20.606Z,98146.34
2023-02-24T04:48:47.700Z,98147.28
2023-02-24T04:51:14.718Z,98136.66
2023-02-24T04:53:41.626Z,98143.44
2023-02-24T04:56:10.045Z,98142.09
2023-02-24T04:58:38.699Z,98128.59
2023-02-24T05:01:11.021Z,98127.09
2023-02-24T05:03:43.432Z,98134.47
2023-02-24T05:06:16.616Z,98134.88
2023-02-24T05:08:44.195Z,98136.69
2023-02-24T05:11:19.405Z,98137.84
2023-02-24T05:13:47.216Z,98130.06
2023-02-24T05:16:17.005Z,98131.19
2023-02-24T05:18:44.920Z,98135.97
2023-02-24T05:21:33.404Z,98134.56
2023-02-24T05:24:06.653Z,98139.66
2023-02-24T05:26:37.141Z,98130.41
2023-02-24T05:29:05.804Z,98141.13
2023-02-24T05:31:33.098Z,98131.84
2023-02-24T05:34:03.284Z,98138.00
2023-02-24T05:36:35.268Z,98135.19
2023-02-24T05:39:12.143Z,98132.38
2023-02-24T05:41:42.204Z,98137.06
2023-02-24T05:44:13.488Z,98143.50
2023-02-24T05:46:44.727Z,98138.72
2023-02-24T05:49:24.157Z,98137.38
2023-02-24T05:51:54.983Z,98140.56
2023-02-24T05:54:29.799Z,98140.13
2023-02-24T05:57:01.579Z,98139.81
2023-02-24T05:59:33.195Z,98144.72
2023-02-24T06:02:07.605Z,98138.69
2023-02-24T06:04:39.748Z,98151.50
2023-02-24T06:07:34.415Z,98153.41
2023-02-24T06:10:04.933Z,98149.59
2023-02-24T06:12:34.726Z,98142.78
2023-02-24T06:15:07.625Z,98144.22
2023-02-24T06:17:34.898Z,98152.28
2023-02-24T06:20:01.858Z,98145.50
2023-02-24T06:22:28.880Z,98147.84
2023-02-24T06:24:56.992Z,98149.22
2023-02-24T06:27:25.229Z,98140.66
2023-02-24T06:29:54.394Z,98145.38
2023-02-24T06:32:24.430Z,98141.00
2023-02-24T06:34:52.118Z,98139.69
2023-02-24T06:37:19.030Z,98148.16
2023-02-24T06:39:46.267Z,98141.03
2023-02-24T06:42:13.462Z,98146.88
2023-02-24T06:44:41.493Z,98147.06
2023-02-24T06:47:11.623Z,98146.22
2023-02-24T06:49:38.588Z,98146.22
2023-02-24T06:52:06.037Z,98143.22
2023-02-24T06:54:36.198Z,98138.50
2023-02-24T06:57:04.271Z,98143.75
2023-02-24T06:59:32.344Z,98132.09
2023-02-24T07:02:03.530Z,98126.31
2023-02-24T07:04:30.678Z,98122.38
2023-02-24T07:07:03.407Z,98129.00
2023-02-24T07:09:31.637Z,98121.91
2023-02-24T07:12:02.668Z,98123.44
2023-02-24T07:14:31.468Z,98119.88
2023-02-24T07:16:59.747Z,98112.03
2023-02-24T07:19:29.595Z,98108.84
2023-02-24T07:22:02.416Z,98110.72
2023-02-24T07:24:36.739Z,98111.22
2023-02-24T07:27:06.655Z,98112.16
2023-02-24T07:29:35.089Z,98111.78
2023-02-24T07:32:05.906Z,98112.13
2023-02-24T07:34:33.970Z,98115.47
2023-02-24T07:37:08.440Z,98109.47
2023-02-24T07:39:37.222Z,98118.38
2023-02-24T07:42:05.038Z,98109.53
2023-02-24T07:44:44.626Z,98107.66
2023-02-24T07:47:11.737Z,98109.31
2023-02-24T07:49:41.119Z,98095.31
2023-02-24T07:52:08.776Z,98083.19
2023-02-24T07:54:37.242Z,98079.09
2023-02-24T07:57:06.298Z,98088.94
2023-02-24T07:59:37.664Z,98087.53
2023-02-24T08:02:07.829Z,98083.84
2023-02-24T08:04:36.481Z,98084.63
2023-02-24T08:07:04.362Z,98077.41
2023-02-24T08:09:44.927Z,98079.06
2023-02-24T08:12:18.387Z,98074.91
2023-02-24T08:14:51.150Z,98070.66
2023-02-24T08:17:26.611Z,98075.88
2023-02-24T08:20:15.682Z,98061.59
2023-02-24T08:22:46.837Z,98070.16
2023-02-24T08:25:19.181Z,98068.22
2023-02-24T08:28:06.852Z,98062.75
2023-02-24T08:30:38.969Z,98056.44
2023-02-24T08:33:09.247Z,98054.03
2023-02-24T08:35:44.951Z,98053.06
2023-02-24T08:38:16.662Z,98051.63
2023-02-24T08:40:54.579Z,98059.78
2023-02-24T08:43:33.034Z,98053.50
2023-02-24T08:46:21.590Z,98053.59
2023-02-24T08:48:55.614Z,98053.59
2023-02-24T08:51:28.885Z,98043.78
2023-02-24T08:54:02.309Z,98046.22
2023-02-24T08:56:34.835Z,98042.72
2023-02-24T08:59:07.798Z,98044.09
2023-02-24T09:01:38.704Z,98040.72
2023-02-24T09:04:09.480Z,98049.09
2023-02-24T09:06:38.313Z,98043.13
2023-02-24T09:09:18.139Z,98040.94
2023-02-24T09:11:59.577Z,98045.53
2023-02-24T09:14:39.405Z,98039.88
2023-02-24T09:17:11.365Z,98033.47
2023-02-24T09:19:46.431Z,98029.34
2023-02-24T09:22:40.953Z,98033.44
2023-02-24T09:25:40.686Z,98028.34
2023-02-24T09:28:20.103Z,98027.66
2023-02-24T09:30:56.441Z,98026.13
2023-02-24T09:33:39.085Z,98027.03
2023-02-24T09:36:13.022Z,98016.91
2023-02-24T09:39:02.250Z,98026.66
2023-02-24T09:42:18.135Z,98019.63
2023-02-24T10:17:40.358Z,97957.28
2023-02-24T10:20:39.561Z,97961.41
2023-02-24T10:23:14.746Z,97947.47
2023-02-24T10:25:56.244Z,97939.75
2023-02-24T10:28:46.070Z,97941.81
2023-02-24T10:31:25.797Z,97928.94
2023-02-24T10:34:07.565Z,97925.84
2023-02-24T10:36:35.945Z,97929.53
2023-02-24T10:39:26.569Z,97925.59
2023-02-24T10:41:59.263Z,97912.44
2023-02-24T10:44:36.354Z,97902.47
2023-02-24T10:47:13.384Z,97898.97
2023-02-24T10:50:03.787Z,97884.88
2023-02-24T10:52:51.112Z,97886.75
2023-02-24T10:55:44.878Z,97868.31
2023-02-24T10:58:38.224Z,97868.41
2023-02-24T11:01:14.211Z,97862.94
2023-02-24T11:04:01.171Z,97865.47
2023-02-24T11:06:41.636Z,97853.25
2023-02-24T11:09:29.706Z,97859.31
2023-02-24T11:12:19.447Z,97855.78
2023-02-24T11:15:17.999Z,97850.31
2023-02-24T11:17:53.300Z,97837.78
2023-02-24T11:20:48.460Z,97844.81
2023-02-24T11:23:33.646Z,97838.88
2023-02-24T11:26:12.107Z,97841.47
2023-02-24T11:28:46.952Z,97835.81
2023-02-24T11:31:23.339Z,97821.25
2023-02-24T11:34:04.594Z,97818.03
2023-02-24T11:37:04.649Z,97808.53
2023-02-24T11:40:01.498Z,97810.00
2023-02-24T11:42:46.262Z,97813.84
2023-02-24T11:45:27.116Z,97806.19
2023-02-24T11:48:04.838Z,97803.84
2023-02-24T11:51:27.776Z,97796.97
2023-02-24T11:54:05.937Z,97789.44
2023-02-24T11:56:53.561Z,97794.41
2023-02-24T11:59:37.051Z,97790.72
2023-02-24T12:02:11.268Z,97784.88
2023-02-24T12:05:02.931Z,97774.34
2023-02-24T12:07:35.039Z,97784.56
2023-02-24T12:10:16.076Z,97763.78
2023-02-24T12:13:02.788Z,97767.91
2023-02-24T12:15:50.899Z,97764.16
2023-02-24T12:18:33.420Z,97759.53
2023-02-24T12:21:30.728Z,97754.28
2023-02-24T12:23:58.930Z,97754.41
2023-02-24T12:27:08.669Z,97756.63
2023-02-24T12:29:54.670Z,97751.03
2023-02-24T12:32:57.750Z,97750.72
2023-02-24T12:35:36.594Z,97747.78
2023-02-24T12:38:46.019Z,97747.00
2023-02-24T12:41:29.420Z,97745.28
2023-02-24T12:44:22.990Z,97730.56
2023-02-24T12:47:04.274Z,97736.97
2023-02-24T12:49:40.400Z,97734.47
2023-02-24T12:52:10.333Z,97726.72
2023-02-24T12:55:02.796Z,97721.31
2023-02-24T12:58:05.175Z,97717.84
2023-02-24T13:00:45.220Z,97723.09
2023-02-24T13:03:33.813Z,97721.06
2023-02-24T13:06:10.013Z,97730.78
2023-02-24T13:08:57.351Z,97722.31
2023-02-24T13:11:43.059Z,97718.88
2023-02-24T13:14:22.448Z,97721.81
2023-02-24T13:16:49.474Z,97715.16
2023-02-24T13:19:43.493Z,97703.25
2023-02-24T13:22:13.190Z,97697.84
2023-02-24T13:25:01.111Z,97697.31
2023-02-24T13:27:32.139Z,97700.03
2023-02-24T13:30:07.634Z,97711.69
2023-02-24T13:32:36.529Z,97710.91
2023-02-24T13:35:26.286Z,97713.78
2023-02-24T13:37:54.653Z,97689.56
2023-02-24T13:40:28.230Z,97694.53
2023-02-24T13:42:58.373Z,97684.50
2023-02-24T13:45:34.125Z,97695.13
2023-02-24T13:48:07.222Z,97696.50
2023-02-24T13:51:01.498Z,97694.97
2023-02-24T13:53:59.629Z,97702.97
2023-02-24T13:56:38.397Z,97690.88
2023-02-24T13:59:16.833Z,97700.28
2023-02-24T14:02:00.404Z,97691.44
2023-02-24T14:04:36.072Z,97683.03
2023-02-24T14:07:09.300Z,97688.81
2023-02-24T14:09:47.354Z,97684.00
2023-02-24T14:12:21.513Z,97683.59
2023-02-24T14:14:50.124Z,97676.16
2023-02-24T14:17:28.406Z,97680.97
2023-02-24T14:20:06.962Z,97687.44
2023-02-24T14:22:34.840Z,97676.44
2023-02-24T14:25:03.409Z,97667.91
2023-02-24T14:27:30.534Z,97672.22
2023-02-24T14:29:57.937Z,97670.84
2023-02-24T14:32:27.191Z,97666.03
2023-02-24T14:34:55.217Z,97666.75
2023-02-24T14:37:26.431Z,97662.06
2023-02-24T14:39:59.290Z,97661.91
2023-02-24T14:42:28.438Z,97669.84
2023-02-24T14:44:58.363Z,97665.31
2023-02-24T14:47:28.951Z,97662.84
2023-02-24T14:50:02.629Z,97656.88
2023-02-24T14:52:44.052Z,97651.13
2023-02-24T14:55:16.686Z,97645.75
2023-02-24T14:58:00.265Z,97641.72
2023-02-24T15:00:33.085Z,97643.50
2023-02-24T15:03:14.686Z,97640.44
2023-02-24T15:05:48.784Z,97643.34
2023-02-24T15:08:27.027Z,97644.91
2023-02-24T15:10:54.201Z,97638.25
2023-02-24T15:13:42.608Z,97644.41
2023-02-24T15:16:15.228Z,97633.66
2023-02-24T15:18:42.859Z,97640.13
2023-02-24T15:21:21.201Z,97639.38
2023-02-24T15:23:48.343Z,97624.38
2023-02-24T15:26:35.356Z,97630.28
2023-02-24T15:29:21.269Z,97619.88
2023-02-24T15:31:50.222Z,97624.03
2023-02-24T15:34:20.678Z,97625.31
2023-02-24T15:36:48.684Z,97621.19
2023-02-24T15:39:23.607Z,97623.63
2023-02-24T15:41:52.554Z,97630.94
2023-02-24T15:44:31.357Z,97620.19
2023-02-24T15:47:00.891Z,97624.28
2023-02-24T15:49:27.989Z,97617.81
2023-02-24T15:51:59.780Z,97618.16
2023-02-24T15:54:34.534Z,97620.19
2023-02-24T15:57:02.697Z,97607.38
2023-02-24T15:59:29.883Z,97610.44
2023-02-24T16:01:57.584Z,97614.59
2023-02-24T16:04:26.942Z,97611.84
2023-02-24T16:06:56.642Z,97614.34
2023-02-24T16:09:37.308Z,97605.22
2023-02-24T16:12:10.837Z,97612.75
2023-02-24T16:14:39.187Z,97611.22
2023-02-24T16:17:17.425Z,97616.91
2023-02-24T16:19:44.512Z,97619.69
2023-02-24T16:22:11.661Z,97620.19
2023-02-24T16:24:38.690Z,97611.84
2023-02-24T16:27:06.351Z,97607.59
2023-02-24T16:29:33.255Z,97610.47
2023-02-24T16:32:00.475Z,97609.69
2023-02-24T16:34:27.853Z,97620.28
2023-02-24T16:36:54.822Z,97622.53
2023-02-24T16:39:21.748Z,97622.09
2023-02-24T16:41:48.801Z,97614.31
2023-02-24T16:44:16.033Z,97617.53
2023-02-24T16:46:45.396Z,97618.25
2023-02-24T16:49:20.422Z,97613.88
2023-02-24T16:51:47.487Z,97615.53
2023-02-24T16:54:14.463Z,97609.78
2023-02-24T16:56:41.606Z,97617.06
2023-02-24T16:59:08.558Z,97625.47
2023-02-24T17:01:35.557Z,97615.53
2023-02-24T17:04:05.390Z,97621.63
2023-02-24T17:06:32.501Z,97616.59
2023-02-24T17:08:59.541Z,97623.09
2023-02-24T17:11:29.010Z,97620.94
2023-02-24T17:13:55.943Z,97625.59
2023-02-24T17:16:23.260Z,97625.81
2023-02-24T17:18:50.553Z,97624.81
2023-02-24T17:21:18.310Z,97627.03
2023-02-24T17:23:45.285Z,97626.03
2023-02-24T17:26:15.697Z,97622.84
2023-02-24T17:28:43.259Z,97621.84
2023-02-24T17:31:10.359Z,97620.56
2023-02-24T17:33:37.341Z,97613.22
2023-02-24T17:36:04.455Z,97606.44
2023-02-24T17:38:31.433Z,97603.13
2023-02-24T17:40:58.412Z,97609.94
2023-02-24T17:43:25.310Z,97603.38
2023-02-24T17:45:53.082Z,97604.72
2023-02-24T17:48:20.891Z,97606.38
2023-02-24T17:50:48.797Z,97606.94
2023-02-24T17:53:15.961Z,97602.91
2023-02-24T17:56:01.002Z,97601.66
2023-02-24T17:58:28.777Z,97595.75
2023-02-24T18:00:55.838Z,97598.22
2023-02-24T18:03:23.103Z,97589.06
2023-02-24T18:05:58.921Z,97591.84
2023-02-24T18:08:25.991Z,97594.84
2023-02-24T18:10:53.216Z,97594.78
2023-02-24T18:13:20.264Z,97592.53
2023-02-24T18:15:47.243Z,97590.84
2023-02-24T18:18:14.219Z,97582.81
2023-02-24T18:20:44.773Z,97590.69
2023-02-24T18:23:12.661Z,97585.38
2023-02-24T18:25:40.086Z,97583.78
2023-02-24T18:28:07.325Z,97579.28
2023-02-24T18:30:34.416Z,97571.97
2023-02-24T18:33:02.211Z,97579.38
2023-02-24T18:35:30.627Z,97578.38
2023-02-24T18:37:57.723Z,97573.66
2023-02-24T18:40:28.866Z,97571.06
2023-02-24T18:42:56.036Z,97581.03
2023-02-24T18:45:23.600Z,97573.47
2023-02-24T18:47:52.129Z,97572.28
2023-02-24T18:50:19.314Z,97575.75
2023-02-24T18:52:46.341Z,97584.22
2023-02-24T18:55:13.293Z,97575.81
2023-02-24T18:57:41.302Z,97584.63
2023-02-24T19:00:09.636Z,97574.66
2023-02-24T19:02:36.894Z,97575.94
2023-02-24T19:05:03.888Z,97578.81
2023-02-24T19:07:30.768Z,97567.47
2023-02-24T19:09:57.662Z,97575.53
2023-02-24T19:12:24.664Z,97570.72
2023-02-24T19:14:52.648Z,97570.28
2023-02-24T19:17:20.186Z,97566.19
2023-02-24T19:19:47.127Z,97568.00
2023-02-24T19:22:14.101Z,97570.16
2023-02-24T19:24:41.125Z,97575.16
2023-02-24T19:27:08.912Z,97562.31
2023-02-24T19:29:35.973Z,97561.94
2023-02-24T19:32:03.122Z,97561.72
2023-02-24T19:34:30.157Z,97562.69
2023-02-24T19:36:57.113Z,97561.63
2023-02-24T19:39:23.986Z,97548.84
2023-02-24T19:41:51.010Z,97549.66
2023-02-24T19:44:18.013Z,97557.25
2023-02-24T19:46:45.189Z,97548.81
2023-02-24T19:49:12.137Z,97557.19
2023-02-24T19:51:39.210Z,97556.16
2023-02-24T19:54:06.503Z,97556.41
2023-02-24T19:56:35.794Z,97546.53
2023-02-24T19:59:05.028Z,97546.09
2023-02-24T20:01:32.619Z,97552.84
2023-02-24T20:04:01.796Z,97546.81
2023-02-24T20:06:35.725Z,97551.56
2023-02-24T20:09:09.041Z,97553.81
2023-02-24T20:11:44.452Z,97545.84
2023-02-24T20:14:12.757Z,97545.00
2023-02-24T20:16:43.742Z,97544.44
2023-02-24T20:19:13.260Z,97530.63
2023-02-24T20:21:40.977Z,97532.00
2023-02-24T20:24:13.403Z,97527.88
2023-02-24T20:26:42.214Z,97531.59
2023-02-24T20:29:09.643Z,97525.28
2023-02-24T20:31:36.768Z,97522.78
2023-02-24T20:34:06.068Z,97522.09
2023-02-24T20:36:33.115Z,97517.84
2023-02-24T20:39:00.287Z,97510.19
2023-02-24T20:41:29.424Z,97520.25
2023-02-24T20:43:56.511Z,97516.69
2023-02-24T20:46:27.437Z,97512.34
2023-02-24T20:49:02.961Z,97510.34
2023-02-24T20:51:31.522Z,97510.44
2023-02-24T20:53:58.856Z,97509.94
2023-02-24T20:56:34.203Z,97502.81
2023-02-24T20:59:06.798Z,97497.78
2023-02-24T21:01:35.172Z,97495.38
2023-02-24T21:04:03.129Z,97496.66
2023-02-24T21:06:30.268Z,97486.81
2023-02-24T21:08:58.417Z,97490.09
2023-02-24T21:11:26.013Z,97486.03
2023-02-24T21:13:53.596Z,97480.25
2023-02-24T21:16:21.882Z,97472.28
2023-02-24T21:18:51.573Z,97467.63
2023-02-24T21:21:19.924Z,97470.63
2023-02-24T21:23:47.911Z,97466.75
2023-02-24T21:26:15.307Z,97465.03
2023-02-24T21:28:42.329Z,97466.50
2023-02-24T21:31:11.392Z,97456.97
2023-02-24T21:33:38.637Z,97461.59
2023-02-24T21:36:09.719Z,97470.38
2023-02-24T21:38:37.713Z,97462.97
2023-02-24T21:41:07.508Z,97462.03
2023-02-24T21:43:34.611Z,97448.72
2023-02-24T21:46:06.854Z,97449.56
2023-02-24T21:48:34.167Z,97453.53
2023-02-24T21:51:07.080Z,97456.84
2023-02-24T21:53:35.906Z,97447.94
2023-02-24T21:56:04.873Z,97441.16
2023-02-24T21:58:33.122Z,97436.44
2023-02-24T22:01:00.184Z,97436.56
2023-02-24T22:03:28.132Z,97442.59
2023-02-24T22:05:55.087Z,97426.09
2023-02-24T22:08:22.234Z,97438.59
2023-02-24T22:10:58.820Z,97434.38
2023-02-24T22:13:25.969Z,97430.69
2023-02-24T22:15:53.136Z,97422.75
2023-02-24T22:18:21.235Z,97426.34
2023-02-24T22:20:48.321Z,97423.47
2023-02-24T22:23:15.226Z,97418.25
2023-02-24T22:25:42.098Z,97426.50
2023-02-24T22:28:09.023Z,97415.25
2023-02-24T22:30:36.200Z,97408.38
2023-02-24T22:33:03.231Z,97414.97
2023-02-24T22:35:30.146Z,97417.44
2023-02-24T22:37:57.357Z,97410.13
2023-02-24T22:40:24.343Z,97408.78
2023-02-24T22:42:51.228Z,97405.91
2023-02-24T22:45:18.243Z,97401.75
2023-02-24T22:47:45.165Z,97394.28
2023-02-24T22:50:12.287Z,97404.56
2023-02-24T22:52:39.982Z,97405.16
2023-02-24T22:55:07.487Z,97394.44
2023-02-24T22:57:35.011Z,97393.34
2023-02-24T23:00:02.018Z,97397.59
2023-02-24T23:02:28.922Z,97392.47
2023-02-24T23:04:57.447Z,97390.25
2023-02-24T23:07:24.323Z,97390.00
2023-02-24T23:09:53.142Z,97389.66
2023-02-24T23:12:22.366Z,97379.56
2023-02-24T23:14:49.353Z,97378.91
2023-02-24T23:17:16.406Z,97368.03
2023-02-24T23:19:43.301Z,97367.75
2023-02-24T23:22:10.270Z,97361.53
2023-02-24T23:24:37.259Z,97365.69
2023-02-24T23:27:04.405Z,97358.28
2023-02-24T23:29:31.327Z,97357.06
2023-02-24T23:31:58.533Z,97360.06
2023-02-24T23:34:25.773Z,97356.59
2023-02-24T23:36:53.210Z,97357.56
2023-02-24T23:39:23.650Z,97354.25
2023-02-24T23:41:56.752Z,97351.28
2023-02-24T23:44:24.049Z,97347.59
2023-02-24T23:46:51.039Z,97353.88
2023-02-24T23:49:17.957Z,97350.41
2023-02-24T23:51:48.814Z,97357.16
2023-02-24T23:54:19.284Z,97346.72
2023-02-24T23:56:46.687Z,97353.50
2023-02-24T23:59:14.529Z,97348.97
